Airfield :
LOGIN :

Register | Disclaimer

   EN    FR    IT 

 










Legend :    VFR   Marginal VFR   IFR   Intensive IFR   Very Intensive IFR
Visi :
Ceiling :
>= 8 km
>= 3000ft
5 to 8 km
1000 to 3000 ft
1500m to 5 km
500 to 1000 ft
800 to 1500m
200 to 500 ft
< 800m
< 200 ft
Symbols :   Thunderstorms  Fog  Heavy snow  Heavy precipitations  Wind > 20 kt
SIGMETs :     Misc.  Thunderstorms  Icing  Turbulence  Mountain Waves  Volcanic Ashes






- Airport Elevation : 13 ft
- IATA code : SNR


LFRZ - St-Nazaire

CURRENT METAR :
  • 131030Z AUTO 28021KT 9999 FEW035/// 10/05 Q0997 TEMPO BKN025TCU BECMG 28022G40KT

EXPIRED METARs :
  • 131000Z AUTO 28021KT 9999 FEW031 10/05 Q0996 TEMPO BKN025TCU BECMG 28022G40KT
  • 130930Z AUTO 28020KT CAVOK 10/05 Q0995 TEMPO BKN025TCU BECMG 28022G40KT
  • 130900Z AUTO 28023KT 9999 -RA FEW043/// BKN052/// BKN064/// ///TCU 10/05 Q0995 BECMG 28022G40KT
  • 130830Z AUTO 28019KT 9999 FEW033 SCT058 BKN074 10/05 Q0994 TEMPO BKN025TCU BECMG 28022G40KT
  • 130800Z AUTO 29017KT 9999 ///TCU 10/05 Q0994 BECMG 28022G40KT

TAF TAF LFRZ
Valid from the 13 at 06:00 until the 14 at 06:00 UTC


130500Z 1306/1406 28022G40KT 9999 BKN030
TEMPO 1306/1316 -SHRA BKN025TCU
BECMG 1316/1318 3000 RA BKN010
PROB40
TEMPO 1322/1402 27030G50KT
BECMG 1402/1404 27016G30KT 9999 NSW SCT025



MET'MAP, your aeronautical weather chart ! - Copyright ORBIFLY December 2007 - Disclaimer

ORBIFLY MET'MAP TEAM :

Programming & Development : Alexandra Zaïnal
Concept & original design : Baudouin d'Aumeries
Assistance for programming : Marc-Olivier Méhu
Technical & hardware support : Manuel Goepfert

Contact : metmap@orbifly.com




SOURCES & CREDITS :

   NOAA